MA16 weather

Marshall's Airport
Holden, Massachusetts, United States

Public forecast

Using degrees Fahrenheit for public forecast. Weather courtesy of forecast.io.

Closest aviation weather report (METAR) to Marshall's Airport

Closest report is Worcester Regional Airport, 6.2 nm (11.6 km) SSW. Retrieved 2020/01/26 07:30 UTC (13 minutes ago):

KORH 260730Z AUTO 27008G16KT 3SM R11/5000VP6000FT BR OVC002 04/04 A2966

Closest aviation forecast (TAF) to Marshall's Airport

Closest forecast is Worcester Regional Airport, 6.2 nm (11.6 km) SSW. Retrieved 2020/01/26 06:34 UTC (1 hour ago):

TAF KORH 260531Z 2606/2706 26006KT 3/4SM BR OVC003 FM260800 28007KT 3SM BR OVC008 FM261000 28008KT 5SM BR BKN020 FM261200 27009KT P6SM SCT250 FM261400 27011G18KT P6SM SCT250 FM261800 26013G20KT P6SM SCT040 FM262100 26011KT P6SM SCT060